Terminal Aerodrome Forecast
Issued by NWS Wilmington, NC

Home | Current Version | Previous Version | Text Only | Print | Product List | Glossary On
Versions: 1 2 3 4 5 6 7 8 9 10 11 12 13 14 15 16 17
000
FTUS42 KILM 241500 AAA
TAFLBT
TAF AMD
KLBT 241523Z 2415/2512 20006KT P6SM VCSH SCT007 BKN030
     FM241700 22012G20KT P6SM VCSH BKN006
     FM242100 22006KT 6SM BR SCT007 OVC015
     FM250000 20010KT 3SM BR BKN005 OVC025=

USA.gov is the U.S. government's official web portal to all federal, state and local government web resources and services.